Time;durP1;ratioP1;P1;durP2;ratioP2;P2;SDS_P1;SDS_P2;PMS_P1;PMS_P2;Temp;Humidity;BMP_temperature;BMP_pressure;BME280_temperature;BME280_humidity;BME280_pressure;Samples;Min_cycle;Max_cycle;Signal;HPM_P1;HPM_P2
2022/02/09 08:01:42;;;;;;;7.90;1.67;;;;;;;5.58;90.39;101549.41;4984910;27;2113121;-79
2022/02/09 08:04:10;;;;;;;7.95;1.33;;;;;;;5.58;90.23;101568.66;5038449;28;20488;-79
2022/02/09 08:06:39;;;;;;;8.32;1.90;;;;;;;5.60;90.15;101571.91;5053847;28;20056;-79
2022/02/09 08:09:18;;;;;;;8.25;2.85;;;;;;;5.62;90.32;101559.53;5052046;28;20048;-79
2022/02/09 08:11:56;;;;;;;6.80;0.93;;;;;;;5.69;90.52;101575.66;5056500;28;20056;-79
2022/02/09 08:38:01;;;;;;;7.85;1.35;;;;;;;5.66;89.22;101603.72;4902242;29;20055;-81
2022/02/09 08:40:29;;;;;;;8.90;1.98;;;;;;;5.67;89.33;101602.59;4944870;28;20062;-78
2022/02/09 08:42:58;;;;;;;11.02;2.08;;;;;;;5.66;89.19;101598.22;4998871;28;20059;-79
2022/02/09 08:45:31;;;;;;;5.20;1.73;;;;;;;5.69;89.66;101603.97;5053134;28;20037;-82
2022/02/09 08:48:05;;;;;;;11.45;2.05;;;;;;;5.76;89.44;101609.91;5041791;28;20044;-79
2022/02/09 08:50:33;;;;;;;11.68;1.92;;;;;;;5.80;89.20;101610.97;5022343;28;20053;-79
2022/02/09 08:53:01;;;;;;;8.65;1.92;;;;;;;5.87;89.21;101613.41;5051449;28;20042;-79
2022/02/09 08:55:28;;;;;;;11.95;3.15;;;;;;;5.92;89.38;101614.16;5010192;28;20067;-79
2022/02/09 08:57:55;;;;;;;4.63;1.38;;;;;;;5.97;89.29;101616.03;5049163;28;20095;-79
2022/02/09 09:00:31;;;;;;;7.82;1.50;;;;;;;6.03;89.12;101615.69;5051754;28;20118;-79
2022/02/09 09:03:18;;;;;;;8.88;2.05;;;;;;;6.06;88.87;101625.28;5034289;28;20045;-79
2022/02/09 09:05:48;;;;;;;9.05;1.85;;;;;;;6.04;88.47;101616.47;5053586;28;20037;-80
2022/02/09 09:08:39;;;;;;;8.13;1.63;;;;;;;6.08;88.42;101628.53;5050646;28;20034;-79
2022/02/09 09:11:30;;;;;;;8.25;3.17;;;;;;;6.14;88.41;101621.88;5032392;28;20038;-79
2022/02/09 10:32:45;;;;;;;8.27;1.70;;;;;;;7.14;85.04;101690.31;6180797;23;20016;-79
2022/02/09 10:35:20;;;;;;;9.32;2.67;;;;;;;7.25;84.93;101698.13;6224599;23;20446;-79
2022/02/09 10:37:47;;;;;;;8.73;2.67;;;;;;;7.38;84.81;101696.56;6251956;23;20008;-79
2022/02/09 10:40:40;;;;;;;7.63;1.67;;;;;;;7.45;83.92;101691.47;6251895;23;20020;-79
2022/02/09 10:43:21;;;;;;;9.23;2.17;;;;;;;7.50;81.94;101699.63;6251362;23;20100;-79
2022/02/09 10:45:50;;;;;;;11.48;1.85;;;;;;;7.57;83.51;101702.81;6224951;23;20012;-80
2022/02/09 10:48:38;;;;;;;13.38;2.28;;;;;;;7.72;82.17;101696.25;6225254;23;20102;-79
2022/02/09 10:51:37;;;;;;;6.32;1.92;;;;;;;7.87;83.12;101706.97;6251755;23;20020;-79
2022/02/09 10:54:10;;;;;;;10.88;1.75;;;;;;;7.94;83.21;101702.69;6199872;23;20030;-79
2022/02/09 10:56:40;;;;;;;6.82;1.48;;;;;;;7.97;82.35;101699.34;6251625;23;20022;-79
2022/02/09 10:59:13;;;;;;;15.50;1.50;;;;;;;7.97;81.52;101710.38;6200104;23;20378;-79
2022/02/09 11:01:42;;;;;;;7.85;2.30;;;;;;;7.93;81.18;101703.84;6251752;23;20012;-79
2022/02/09 11:04:11;;;;;;;10.93;1.50;;;;;;;7.94;81.11;101710.97;6250163;23;20019;-79
2022/02/09 11:06:43;;;;;;;10.50;1.85;;;;;;;8.02;81.51;101703.13;6224567;23;20019;-79
2022/02/09 11:09:18;;;;;;;5.20;1.63;;;;;;;8.06;81.08;101709.66;6224292;23;20073;-80
2022/02/09 11:11:48;;;;;;;16.90;2.00;;;;;;;8.03;80.58;101716.59;6248114;23;20024;-79
2022/02/09 11:14:23;;;;;;;6.60;1.73;;;;;;;8.04;78.98;101722.94;6218241;23;20175;-79
2022/02/09 11:17:06;;;;;;;9.15;2.25;;;;;;;7.98;80.24;101711.19;6244294;23;20043;-79
2022/02/09 11:19:44;;;;;;;11.90;2.95;;;;;;;7.90;80.14;101709.97;6244605;23;20059;-79
2022/02/09 11:22:21;;;;;;;11.63;1.98;;;;;;;7.81;79.27;101717.28;6218253;23;20016;-79
2022/02/09 11:25:31;;;;;;;13.23;1.63;;;;;;;7.74;77.14;101725.13;6219049;23;20040;-79
2022/02/09 11:28:18;;;;;;;5.97;2.10;;;;;;;7.71;78.20;101722.97;6217283;23;20072;-79
2022/02/09 11:31:31;;;;;;;12.60;2.08;;;;;;;7.62;75.53;101721.22;6218620;23;20012;-79
2022/02/09 11:34:06;;;;;;;15.63;1.50;;;;;;;7.55;78.52;101721.59;6217510;23;20023;-79
2022/02/09 11:39:21;;;;;;;14.52;2.08;;;;;;;7.47;78.63;101700.25;6244582;23;20016;-79
2022/02/09 11:52:32;;;;;;;12.77;1.90;;;;;;;7.41;78.23;101693.19;6241840;23;20042;-79
2022/02/09 11:55:39;;;;;;;10.00;2.30;;;;;;;7.45;77.91;101696.16;6217038;23;20016;-80
2022/02/09 12:01:00;;;;;;;12.18;2.33;;;;;;;7.52;76.06;101680.88;6216918;23;20039;-80
2022/02/09 12:09:34;;;;;;;4.93;1.67;;;;;;;7.69;76.77;101686.63;6217535;23;20051;-80
2022/02/09 12:12:14;;;;;;;11.55;1.80;;;;;;;7.70;76.31;101682.78;6242657;23;20019;-79
2022/02/09 12:14:55;;;;;;;5.68;1.90;;;;;;;7.79;75.91;101691.97;6243718;23;20020;-80
2022/02/09 12:20:20;;;;;;;7.00;1.80;;;;;;;7.84;73.88;101686.34;6243992;23;20016;-80
2022/02/09 12:25:49;;;;;;;7.85;1.17;;;;;;;8.06;73.33;101682.09;6217272;23;20370;-80
2022/02/09 12:28:23;;;;;;;7.45;1.40;;;;;;;8.03;71.12;101668.91;6217304;23;20027;-80
2022/02/09 12:31:15;;;;;;;13.02;1.48;;;;;;;7.96;70.79;101663.81;6244322;23;20016;-79
2022/02/09 12:33:47;;;;;;;3.47;1.38;;;;;;;7.92;72.08;101671.03;6217149;23;20063;-80
2022/02/09 12:36:24;;;;;;;6.32;1.38;;;;;;;7.90;71.65;101671.34;6243768;23;20024;-80
2022/02/09 12:39:09;;;;;;;13.23;2.30;;;;;;;7.87;70.70;101655.41;6192263;23;20048;-80
2022/02/09 12:41:41;;;;;;;12.40;2.05;;;;;;;7.95;72.42;101646.44;6191763;23;20023;-80
2022/02/09 12:44:11;;;;;;;8.43;1.88;;;;;;;8.03;71.37;101657.88;6243740;23;20012;-80
2022/02/09 12:46:45;;;;;;;5.03;1.23;;;;;;;8.10;71.83;101647.28;6217249;23;20094;-79
2022/02/09 12:49:20;;;;;;;6.53;1.77;;;;;;;8.11;71.08;101655.22;6243561;23;20043;-80
2022/02/09 12:51:51;;;;;;;9.70;1.38;;;;;;;8.08;70.39;101652.25;6216991;23;20377;-80
2022/02/09 12:54:21;;;;;;;9.18;2.58;;;;;;;8.02;70.62;101650.75;6216864;23;20521;-80
2022/02/09 12:56:51;;;;;;;7.05;1.55;;;;;;;7.97;70.94;101654.41;6216875;23;20023;-80
2022/02/09 12:59:22;;;;;;;6.78;1.20;;;;;;;7.90;70.85;101654.00;6192664;23;20450;-80
2022/02/09 13:01:50;;;;;;;9.35;1.52;;;;;;;7.85;70.72;101646.66;6216515;23;20016;-79
2022/02/09 13:04:37;;;;;;;7.13;2.28;;;;;;;7.80;70.42;101640.41;6191981;23;20548;-79
2022/02/09 13:07:07;;;;;;;9.52;1.80;;;;;;;7.81;71.47;101640.09;6242231;23;20023;-80
2022/02/09 13:09:35;;;;;;;11.18;1.70;;;;;;;7.84;71.53;101647.75;6216612;23;20019;-79
2022/02/09 13:12:03;;;;;;;11.98;1.70;;;;;;;7.85;71.14;101643.88;6217003;23;20311;-80
2022/02/09 13:14:38;;;;;;;5.32;1.50;;;;;;;7.92;70.88;101635.19;6216971;23;20019;-80
2022/02/09 13:17:24;;;;;;;7.93;1.70;;;;;;;7.95;70.74;101635.41;6243333;23;20024;-79
2022/02/09 14:11:09;;;;;;;6.65;1.10;;;;;;;8.34;69.80;101588.00;6170913;23;20024;-79
2022/02/09 14:16:33;;;;;;;5.95;1.60;;;;;;;8.54;69.98;101587.56;6244125;23;20016;-79
2022/02/09 14:19:15;;;;;;;11.95;1.83;;;;;;;8.71;69.86;101584.13;6217461;23;20040;-79
2022/02/09 15:00:22;;;;;;;;;;;;;;;;;;;;;
2022/02/09 15:09:23;;;;;;;11.23;1.38;;;;;;;8.66;66.13;101603.56;5926220;24;20036;-82
2022/02/09 15:12:41;;;;;;;;;;;;;;;;;;;;;
2022/02/09 15:27:59;;;;;;;;;;;;;;;7.84;67.18;101581.59;6033857;23;20034;-81
2022/02/09 15:31:42;;;;;;;6.63;1.90;;;;;;;7.81;67.86;101584.97;6034496;23;20333;-81
2022/02/09 15:38:27;;;;;;;3.85;1.10;;;;;;;7.69;67.80;101590.16;6001859;23;20377;-81
2022/02/09 15:41:28;;;;;;;3.08;1.42;;;;;;;7.68;68.66;101580.25;6144966;23;20013;-81
2022/02/09 16:25:04;;;;;;;;;;;;;;;;;;;;;
2022/02/09 16:51:11;;;;;;;;;;;;;;;;;;;;;
2022/02/09 17:57:03;;;;;;;21.77;11.65;;;;;;;6.71;72.21;101583.09;6246422;22;20019;-85
2022/02/09 17:59:36;;;;;;;34.95;13.27;;;;;;;6.70;72.49;101591.63;6222434;22;20341;-82
2022/02/09 18:45:52;;;;;;;13.27;3.20;;;;;;;5.85;74.63;101601.88;6245088;23;19920;-81
2022/02/09 19:03:25;;;;;;;9.27;3.33;;;;;;;5.66;75.11;101626.53;6180152;23;20104;-85
2022/02/09 19:06:02;;;;;;;8.77;4.70;;;;;;;5.65;75.31;101630.38;6207175;23;20087;-80
2022/02/09 19:16:44;;;;;;;10.00;3.75;;;;;;;5.57;75.51;101628.25;6217485;23;20020;-79
2022/02/09 19:19:29;;;;;;;8.88;3.53;;;;;;;5.52;75.59;101626.38;6244765;23;20017;-80
2022/02/09 19:28:07;;;;;;;7.07;2.80;;;;;;;5.46;76.12;101611.06;6243862;23;20012;-79
2022/02/09 19:46:44;;;;;;;12.18;4.05;;;;;;;5.31;76.29;101592.00;6244452;23;20016;-79
2022/02/09 19:55:05;;;;;;;5.57;2.72;;;;;;;5.22;76.64;101598.38;6244288;23;20030;-80
2022/02/09 19:57:48;;;;;;;8.23;3.28;;;;;;;5.20;76.68;101590.44;6242035;23;20099;-79
2022/02/09 20:00:20;;;;;;;8.98;3.10;;;;;;;5.18;76.90;101591.84;6216936;23;20377;-80
2022/02/09 20:02:47;;;;;;;9.47;2.57;;;;;;;5.16;76.91;101592.16;6217585;23;20034;-79
2022/02/09 20:05:15;;;;;;;6.82;3.58;;;;;;;5.15;76.67;101587.75;6241662;23;20066;-80
2022/02/09 20:07:42;;;;;;;5.65;3.42;;;;;;;5.18;76.83;101587.19;6243635;23;20473;-79
2022/02/09 20:10:11;;;;;;;7.47;2.65;;;;;;;5.15;76.99;101590.50;6243574;23;20012;-80
2022/02/09 20:12:40;;;;;;;10.05;4.40;;;;;;;5.13;77.21;101584.50;6243117;23;20020;-79
2022/02/09 20:15:16;;;;;;;7.88;3.58;;;;;;;5.15;77.03;101582.25;6218089;23;20016;-80
2022/02/09 20:17:46;;;;;;;8.95;2.80;;;;;;;5.15;77.08;101576.78;6244061;23;20030;-80
2022/02/09 20:20:26;;;;;;;10.50;3.80;;;;;;;5.13;76.91;101579.00;6217276;23;20020;-79
2022/02/09 20:22:55;;;;;;;15.73;3.92;;;;;;;5.12;77.09;101584.75;6217848;23;20016;-79
2022/02/09 20:25:30;;;;;;;10.50;2.92;;;;;;;5.13;77.27;101594.63;6243566;23;20012;-80
2022/02/09 20:27:57;;;;;;;7.78;3.13;;;;;;;5.13;77.28;101589.97;6192152;23;20023;-80
2022/02/09 20:30:33;;;;;;;9.77;4.10;;;;;;;5.13;77.37;101594.63;6216948;23;20443;-80
2022/02/09 20:33:08;;;;;;;7.45;2.90;;;;;;;5.11;77.60;101589.41;6242748;23;20048;-80
2022/02/09 20:35:55;;;;;;;6.97;3.22;;;;;;;5.10;77.33;101590.53;6242484;23;20358;-80
2022/02/09 20:38:27;;;;;;;9.75;3.83;;;;;;;5.10;77.50;101593.28;6243627;23;20494;-80
2022/02/09 20:41:07;;;;;;;11.00;3.55;;;;;;;5.11;77.53;101600.41;6218736;23;20024;-80
2022/02/09 20:43:43;;;;;;;7.30;2.95;;;;;;;5.10;77.84;101593.28;6216935;23;20022;-80
2022/02/09 20:46:12;;;;;;;12.13;3.00;;;;;;;5.08;77.42;101601.00;6243292;23;20016;-79
2022/02/09 20:48:42;;;;;;;;;;;;;;;5.04;78.58;101593.59;6192908;23;20401;-79
2022/02/09 20:51:10;;;;;;;8.27;3.00;;;;;;;5.05;78.00;101598.81;6243433;23;19966;-79
2022/02/09 20:53:38;;;;;;;9.32;2.92;;;;;;;5.05;77.75;101598.81;6241723;23;20043;-80
2022/02/09 20:56:05;;;;;;;9.15;2.90;;;;;;;5.03;77.85;101601.00;6243340;23;20457;-80
2022/02/09 20:58:35;;;;;;;9.45;3.38;;;;;;;5.01;77.74;101586.78;6242937;23;20442;-80
2022/02/09 21:01:08;;;;;;;13.77;3.70;;;;;;;4.97;77.56;101591.22;6217176;23;20012;-80
2022/02/09 21:03:46;;;;;;;9.15;4.07;;;;;;;4.92;77.96;101589.31;6217563;23;20043;-80
2022/02/09 21:19:53;;;;;;;7.85;2.85;;;;;;;4.76;77.66;101582.31;6242913;23;20091;-78
2022/02/09 22:22:39;;;;;;;10.65;3.00;;;;;;;4.38;78.82;101576.81;6212327;23;20091;-83
2022/02/09 22:27:56;;;;;;;3.58;1.83;;;;;;;4.31;78.94;101572.47;6212270;23;20009;-80
2022/02/09 22:31:16;;;;;;;13.55;2.65;;;;;;;4.33;79.11;101577.69;6212407;23;20021;-80
2022/02/09 22:50:24;;;;;;;5.90;2.38;;;;;;;4.28;79.22;101574.97;6236359;23;20021;-80
2022/02/09 22:55:43;;;;;;;11.18;2.83;;;;;;;4.27;79.18;101571.41;6210119;23;20031;-80
2022/02/09 22:58:12;;;;;;;9.85;3.90;;;;;;;4.27;79.41;101567.84;6241134;23;20016;-80
2022/02/09 23:04:12;;;;;;;11.23;3.55;;;;;;;4.21;79.65;101583.50;6215750;23;20016;-80
